Time;durP1;ratioP1;P1;durP2;ratioP2;P2;SDS_P1;SDS_P2;PMS_P1;PMS_P2;Temp;Humidity;BMP_temperature;BMP_pressure;BME280_temperature;BME280_humidity;BME280_pressure;Samples;Min_cycle;Max_cycle;Signal;HPM_P1;HPM_P2
2021/07/13 00:01:38;;;;;;;0.00;0.00;;;19.00;74.30;18.40;100943.00;;;;5021116;28;20041;-84
2021/07/13 00:04:04;;;;;;;0.00;0.00;;;;;18.40;100941.00;;;;5021719;28;20137;-85
2021/07/13 00:06:31;;;;;;;0.00;0.00;;;19.00;75.20;18.40;100937.00;;;;4996266;28;20492;-86
2021/07/13 00:08:58;;;;;;;0.00;0.00;;;19.10;74.30;18.40;100950.00;;;;5002020;28;20153;-85
2021/07/13 00:11:24;;;;;;;;;;;19.00;74.70;18.40;100951.00;;;;4969340;28;20056;-85
2021/07/13 00:13:50;;;;;;;0.00;0.00;;;19.10;73.90;18.40;100961.00;;;;5001692;28;19921;-85
2021/07/13 00:16:16;;;;;;;0.00;0.00;;;19.10;74.70;18.40;100957.00;;;;5003805;28;20049;-85
2021/07/13 00:18:43;;;;;;;0.00;0.00;;;;;18.40;100962.00;;;;5006171;28;20086;-85
2021/07/13 00:21:09;;;;;;;0.00;0.00;;;19.00;75.00;18.40;100955.00;;;;5001239;28;20046;-85
2021/07/13 00:23:36;;;;;;;0.00;0.00;;;19.00;74.20;18.40;100962.00;;;;5016363;28;20057;-85
2021/07/13 00:26:04;;;;;;;0.00;0.00;;;19.00;73.80;18.40;100965.00;;;;5006913;28;20292;-84
2021/07/13 00:28:33;;;;;;;0.10;0.10;;;19.00;73.10;18.40;100963.00;;;;5024186;28;20042;-85
2021/07/13 00:31:00;;;;;;;0.00;0.00;;;19.00;73.60;18.30;100965.00;;;;5018924;28;20038;-84
2021/07/13 00:33:26;;;;;;;0.00;0.00;;;19.00;73.80;18.30;100966.00;;;;5024456;28;20052;-84
2021/07/13 00:35:52;;;;;;;0.00;0.00;;;19.00;73.90;18.40;100967.00;;;;5020909;28;20140;-84
2021/07/13 00:38:18;;;;;;;0.00;0.00;;;19.00;74.70;18.30;100957.00;;;;5011045;28;20109;-85
2021/07/13 00:40:44;;;;;;;0.00;0.00;;;19.00;73.10;18.30;100970.00;;;;4972241;28;20181;-85
2021/07/13 00:43:10;;;;;;;0.00;0.00;;;19.00;74.90;18.30;100971.00;;;;5008575;28;20603;-85
2021/07/13 00:45:36;;;;;;;0.00;0.00;;;19.00;75.60;18.30;100966.00;;;;5025767;28;20042;-85
2021/07/13 00:48:05;;;;;;;0.00;0.00;;;18.90;74.10;18.30;100969.00;;;;5001375;28;20069;-84
2021/07/13 00:50:31;;;;;;;0.00;0.00;;;19.00;75.90;18.30;100974.00;;;;5014598;28;20060;-84
2021/07/13 00:52:58;;;;;;;0.00;0.00;;;19.00;75.60;18.30;100969.00;;;;5004365;28;20123;-85
2021/07/13 00:55:25;;;;;;;0.00;0.00;;;19.00;76.10;18.30;100959.00;;;;4997219;28;20053;-85
2021/07/13 00:57:52;;;;;;;0.00;0.00;;;19.00;75.60;18.40;100962.00;;;;5002185;28;20532;-85
2021/07/13 01:00:21;;;;;;;0.00;0.00;;;19.00;75.70;18.40;100963.00;;;;5005599;28;20203;-84
2021/07/13 01:02:50;;;;;;;0.00;0.00;;;19.00;75.70;18.40;100959.00;;;;4987459;28;20054;-84
2021/07/13 01:05:26;;;;;;;0.00;0.00;;;19.00;73.80;18.40;100964.00;;;;5020587;28;20049;-85
2021/07/13 01:08:38;;;;;;;0.00;0.00;;;19.00;74.50;18.30;100952.00;;;;4999530;28;20100;-84
2021/07/13 01:11:23;;;;;;;0.08;0.08;;;19.00;74.50;18.30;100944.00;;;;4989959;28;20332;-85
2021/07/13 01:14:04;;;;;;;0.00;0.00;;;19.00;75.20;18.30;100952.00;;;;4990791;28;20385;-85
2021/07/13 01:16:58;;;;;;;0.00;0.00;;;19.00;75.30;18.30;100943.00;;;;5017934;28;20160;-85
2021/07/13 01:19:50;;;;;;;0.00;0.00;;;19.00;76.90;18.30;100949.00;;;;4985911;28;20107;-84
2021/07/13 01:22:23;;;;;;;0.00;0.00;;;18.90;75.10;18.30;100950.00;;;;5000453;28;20057;-85
2021/07/13 01:25:22;;;;;;;0.00;0.00;;;18.90;75.20;18.30;100939.00;;;;4999776;28;20049;-85
2021/07/13 01:27:48;;;;;;;0.00;0.00;;;18.90;76.50;18.30;100937.00;;;;4996732;28;20121;-85
2021/07/13 01:30:31;;;;;;;0.00;0.00;;;18.90;76.50;18.30;100928.00;;;;4989086;28;20120;-85
2021/07/13 01:33:06;;;;;;;0.00;0.00;;;18.90;75.60;18.30;100921.00;;;;5017311;28;20407;-86
2021/07/13 01:35:39;;;;;;;0.00;0.00;;;18.90;73.90;18.30;100919.00;;;;5014931;28;20057;-86
2021/07/13 01:38:10;;;;;;;0.00;0.00;;;18.90;75.30;18.30;100916.00;;;;5013428;28;20050;-85
2021/07/13 01:40:41;;;;;;;0.00;0.00;;;18.90;74.70;18.30;100905.00;;;;4985643;28;20049;-85
2021/07/13 01:43:10;;;;;;;0.15;0.10;;;18.90;74.40;18.30;100898.00;;;;5011727;28;20053;-85
2021/07/13 01:45:38;;;;;;;0.00;0.00;;;19.00;76.30;18.30;100917.00;;;;4985501;28;20043;-85
2021/07/13 01:48:08;;;;;;;0.15;0.15;;;;;18.40;100919.00;;;;5006926;28;20774;-85
2021/07/13 01:50:35;;;;;;;0.00;0.00;;;;;18.40;100914.00;;;;5040317;28;20045;-85
2021/07/13 01:53:03;;;;;;;0.00;0.00;;;19.00;76.50;18.50;100927.00;;;;5020800;28;20064;-85
2021/07/13 01:55:33;;;;;;;0.00;0.00;;;19.10;76.00;18.50;100927.00;;;;5024341;28;20037;-85
2021/07/13 01:58:01;;;;;;;0.00;0.00;;;19.10;77.60;18.50;100924.00;;;;5004135;28;21033;-85
2021/07/13 02:00:29;;;;;;;0.00;0.00;;;19.10;78.10;18.60;100935.00;;;;5037001;28;20048;-83
2021/07/13 02:02:57;;;;;;;0.00;0.00;;;19.20;78.00;18.60;100932.00;;;;5016753;28;20135;-85
2021/07/13 02:05:26;;;;;;;0.00;0.00;;;19.20;76.60;18.60;100931.00;;;;5023698;28;20076;-85
2021/07/13 02:07:58;;;;;;;0.00;0.00;;;19.20;76.30;18.60;100918.00;;;;5024505;28;20079;-85
2021/07/13 02:10:24;;;;;;;0.00;0.00;;;19.20;76.80;18.60;100924.00;;;;5025447;28;20123;-84
2021/07/13 02:12:50;;;;;;;0.00;0.00;;;19.20;76.80;18.60;100922.00;;;;5025035;28;20041;-85
2021/07/13 02:15:16;;;;;;;0.00;0.00;;;19.20;75.90;18.60;100928.00;;;;5037521;28;20102;-84
2021/07/13 02:17:44;;;;;;;0.00;0.00;;;;;18.60;100932.00;;;;5026436;28;20076;-84
2021/07/13 02:20:11;;;;;;;0.00;0.00;;;19.20;76.60;18.60;100926.00;;;;5042324;28;20048;-84
2021/07/13 02:22:37;;;;;;;;;;;19.20;77.00;18.60;100923.00;;;;5036389;28;20053;-82
2021/07/13 02:25:15;;;;;;;0.00;0.00;;;19.20;76.10;18.60;100925.00;;;;5020103;28;20457;-84
2021/07/13 02:27:47;;;;;;;0.10;0.10;;;19.20;77.00;18.60;100919.00;;;;5021141;28;20140;-82
2021/07/13 02:30:14;;;;;;;0.00;0.00;;;19.20;76.10;18.50;100924.00;;;;5026976;28;20419;-84
2021/07/13 02:33:02;;;;;;;0.00;0.00;;;19.20;76.60;18.50;100922.00;;;;5039705;28;20033;-83
2021/07/13 02:35:44;;;;;;;0.00;0.00;;;19.10;76.30;18.50;100923.00;;;;5037482;28;20025;-84
2021/07/13 02:38:11;;;;;;;0.00;0.00;;;19.10;76.80;18.40;100928.00;;;;5026728;28;20044;-84
2021/07/13 02:40:38;;;;;;;0.00;0.00;;;;;18.40;100920.00;;;;5008624;28;20060;-84
2021/07/13 02:43:06;;;;;;;;;;;19.00;76.30;18.30;100923.00;;;;5025512;28;20049;-84
2021/07/13 02:45:46;;;;;;;0.00;0.00;;;18.90;76.00;18.30;100924.00;;;;5025458;28;19921;-83
2021/07/13 02:48:13;;;;;;;0.00;0.00;;;18.90;74.80;18.20;100928.00;;;;5052613;28;20126;-84
2021/07/13 02:50:40;;;;;;;;;;;18.80;76.20;18.10;100926.00;;;;5043716;28;20797;-84
2021/07/13 02:53:09;;;;;;;0.00;0.00;;;18.80;76.90;18.10;100920.00;;;;5023108;28;19931;-84
2021/07/13 02:55:37;;;;;;;0.00;0.00;;;18.80;76.20;18.10;100914.00;;;;5039623;28;20041;-84
2021/07/13 02:58:05;;;;;;;0.00;0.00;;;18.80;77.70;18.10;100918.00;;;;5024683;28;20033;-84
2021/07/13 03:00:34;;;;;;;0.00;0.00;;;18.70;76.80;18.10;100909.00;;;;5011857;28;20044;-85
2021/07/13 03:03:01;;;;;;;0.00;0.00;;;18.80;78.10;18.10;100904.00;;;;5022616;28;20047;-85
2021/07/13 03:05:31;;;;;;;0.10;0.10;;;18.80;77.70;18.10;100909.00;;;;5026636;28;20033;-85
2021/07/13 03:08:00;;;;;;;0.00;0.00;;;18.80;77.00;18.10;100904.00;;;;5040054;28;20196;-85
2021/07/13 03:10:27;;;;;;;0.00;0.00;;;18.80;77.90;18.10;100897.00;;;;5016182;28;20555;-83
2021/07/13 03:12:54;;;;;;;0.00;0.00;;;18.80;78.20;18.20;100903.00;;;;5025082;28;20090;-84
2021/07/13 03:15:27;;;;;;;0.00;0.00;;;18.80;77.40;18.20;100905.00;;;;5033595;28;20139;-84
2021/07/13 03:17:54;;;;;;;0.00;0.00;;;;;18.20;100902.00;;;;5033333;28;20064;-86
2021/07/13 03:20:22;;;;;;;0.00;0.00;;;18.80;76.30;18.20;100896.00;;;;5035466;28;20102;-81
2021/07/13 03:22:51;;;;;;;0.00;0.00;;;18.80;74.90;18.20;100895.00;;;;5021886;28;20048;-81
2021/07/13 03:25:39;;;;;;;0.00;0.00;;;18.80;77.90;18.10;100899.00;;;;5007564;28;20152;-83
2021/07/13 03:28:06;;;;;;;0.00;0.00;;;18.80;77.60;18.10;100891.00;;;;5021089;28;20875;-82
2021/07/13 03:30:33;;;;;;;0.57;0.57;;;18.70;76.00;18.10;100886.00;;;;4994073;28;20128;-83
2021/07/13 03:33:01;;;;;;;0.20;0.20;;;18.70;77.10;18.00;100882.00;;;;5019980;28;20507;-83
2021/07/13 03:35:27;;;;;;;;;;;18.70;77.40;18.00;100874.00;;;;5022178;28;20094;-83
2021/07/13 03:37:57;;;;;;;0.00;0.00;;;18.70;77.80;18.00;100869.00;;;;5020441;28;19928;-84
2021/07/13 03:40:26;;;;;;;0.00;0.00;;;18.60;77.00;18.00;100873.00;;;;5003069;28;20041;-83
2021/07/13 03:42:53;;;;;;;0.00;0.00;;;18.70;77.50;18.00;100880.00;;;;5022124;28;20204;-83
2021/07/13 03:45:22;;;;;;;0.00;0.00;;;18.60;77.30;18.00;100876.00;;;;5005313;28;20099;-83
2021/07/13 03:47:58;;;;;;;0.00;0.00;;;18.70;78.10;18.00;100876.00;;;;5011465;28;20072;-84
2021/07/13 03:50:44;;;;;;;0.00;0.00;;;18.70;77.40;18.00;100871.00;;;;5020674;28;20049;-84
2021/07/13 03:53:11;;;;;;;0.00;0.00;;;;;18.00;100868.00;;;;4997959;28;20141;-84
2021/07/13 03:55:37;;;;;;;0.20;0.10;;;18.70;78.60;18.10;100870.00;;;;5004375;28;20052;-84
2021/07/13 03:58:03;;;;;;;0.00;0.00;;;18.80;78.00;18.10;100872.00;;;;5017434;28;20038;-83
2021/07/13 04:00:32;;;;;;;0.00;0.00;;;18.70;78.60;18.10;100871.00;;;;4983907;28;20047;-83
2021/07/13 04:02:58;;;;;;;0.00;0.00;;;18.70;77.90;18.10;100867.00;;;;5005357;28;20690;-84
2021/07/13 04:05:25;;;;;;;0.00;0.00;;;18.80;78.00;18.20;100877.00;;;;4972207;28;20087;-83
2021/07/13 04:07:51;;;;;;;0.00;0.00;;;18.80;78.60;18.20;100875.00;;;;4996569;28;20103;-82
2021/07/13 04:10:17;;;;;;;0.00;0.00;;;18.80;78.20;18.20;100882.00;;;;5002870;28;20553;-83
2021/07/13 04:12:43;;;;;;;0.00;0.00;;;18.90;78.10;18.30;100882.00;;;;5019757;28;20041;-83
2021/07/13 04:15:12;;;;;;;0.00;0.00;;;18.90;77.80;18.30;100884.00;;;;5027021;28;20797;-82
2021/07/13 04:17:38;;;;;;;0.00;0.00;;;18.90;78.60;18.30;100882.00;;;;5021794;28;20079;-83
2021/07/13 04:20:06;;;;;;;0.00;0.00;;;18.90;77.70;18.30;100890.00;;;;5038295;28;22213;-83
2021/07/13 04:22:32;;;;;;;0.00;0.00;;;18.90;78.60;18.30;100893.00;;;;5019219;28;20069;-83
2021/07/13 04:24:58;;;;;;;0.00;0.00;;;18.90;78.80;18.40;100895.00;;;;5038843;28;20045;-83
2021/07/13 04:27:24;;;;;;;0.05;0.05;;;19.00;79.40;18.30;100902.00;;;;5039426;28;20091;-83
2021/07/13 04:29:51;;;;;;;0.00;0.00;;;19.00;78.90;18.40;100907.00;;;;5019636;28;20134;-83
2021/07/13 04:32:18;;;;;;;0.00;0.00;;;;;18.40;100896.00;;;;5009740;28;20072;-84
2021/07/13 04:34:44;;;;;;;0.00;0.00;;;19.00;77.70;18.40;100902.00;;;;5023050;28;20491;-83
2021/07/13 04:37:10;;;;;;;0.00;0.00;;;;;18.40;100903.00;;;;5020968;28;20132;-83
2021/07/13 04:39:36;;;;;;;0.00;0.00;;;19.00;78.40;18.30;100912.00;;;;5021074;28;20069;-83
2021/07/13 04:42:03;;;;;;;0.00;0.00;;;;;18.30;100912.00;;;;5006290;28;20127;-83
2021/07/13 04:44:29;;;;;;;0.00;0.00;;;19.00;78.90;18.30;100905.00;;;;4992959;28;20053;-83
2021/07/13 04:46:55;;;;;;;0.00;0.00;;;19.00;78.40;18.30;100926.00;;;;4988564;28;20668;-83
2021/07/13 04:49:21;;;;;;;0.00;0.00;;;19.00;78.20;18.40;100917.00;;;;5022715;28;20052;-83
2021/07/13 04:51:48;;;;;;;0.00;0.00;;;19.00;78.80;18.40;100913.00;;;;5034406;28;20048;-83
2021/07/13 04:54:14;;;;;;;0.00;0.00;;;19.00;76.80;18.40;100914.00;;;;5026297;28;20172;-83
2021/07/13 04:56:40;;;;;;;0.10;0.10;;;19.00;77.50;18.30;100903.00;;;;5002276;28;20037;-83
2021/07/13 04:59:06;;;;;;;0.00;0.00;;;19.00;78.80;18.30;100912.00;;;;5017593;28;20060;-83
2021/07/13 05:01:32;;;;;;;0.10;0.10;;;19.00;79.10;18.30;100910.00;;;;5005408;28;20041;-83
2021/07/13 05:03:58;;;;;;;0.00;0.00;;;19.00;80.00;18.40;100920.00;;;;5019827;28;20510;-82
2021/07/13 05:06:24;;;;;;;0.00;0.00;;;19.00;79.70;18.40;100924.00;;;;5006073;28;20051;-83
2021/07/13 05:08:51;;;;;;;0.10;0.10;;;19.00;78.50;18.50;100923.00;;;;5037149;28;20049;-83
2021/07/13 05:11:17;;;;;;;;;;;18.60;78.90;18.50;100926.00;;;;5009301;28;20045;-83
2021/07/13 05:13:43;;;;;;;0.00;0.00;;;19.10;78.20;18.50;100924.00;;;;5016353;28;19920;-83
2021/07/13 05:16:09;;;;;;;0.00;0.00;;;;;18.50;100927.00;;;;5004741;28;20152;-83
2021/07/13 05:18:36;;;;;;;0.00;0.00;;;19.10;78.40;18.50;100927.00;;;;5033298;28;20036;-83
2021/07/13 05:21:05;;;;;;;0.00;0.00;;;19.20;78.30;18.60;100937.00;;;;5052415;28;20135;-83
2021/07/13 05:23:32;;;;;;;0.00;0.00;;;19.20;79.20;18.60;100927.00;;;;5002595;28;20983;-83
2021/07/13 05:25:58;;;;;;;0.00;0.00;;;19.20;79.20;18.60;100928.00;;;;4999732;28;20458;-83
2021/07/13 05:28:24;;;;;;;0.00;0.00;;;19.20;78.60;18.60;100940.00;;;;5022158;28;20045;-83
2021/07/13 05:30:50;;;;;;;0.00;0.00;;;19.20;79.10;18.60;100929.00;;;;5039920;28;20388;-83
2021/07/13 05:33:16;;;;;;;0.00;0.00;;;19.20;78.20;18.60;100931.00;;;;5024424;28;20052;-83
2021/07/13 05:35:43;;;;;;;0.00;0.00;;;19.20;78.60;18.60;100934.00;;;;5024863;28;20057;-84
2021/07/13 05:38:10;;;;;;;0.00;0.00;;;19.30;78.40;18.70;100932.00;;;;5019615;28;20042;-84
2021/07/13 05:40:36;;;;;;;0.10;0.10;;;;;18.70;100926.00;;;;5027489;28;20041;-84
2021/07/13 05:43:02;;;;;;;0.00;0.00;;;19.30;79.10;18.80;100939.00;;;;5035401;28;20400;-83
2021/07/13 05:45:29;;;;;;;0.20;0.20;;;19.40;78.40;18.80;100934.00;;;;5014483;28;20113;-83
2021/07/13 05:47:55;;;;;;;0.00;0.00;;;19.40;77.70;18.80;100934.00;;;;5014416;28;20053;-83
2021/07/13 05:50:21;;;;;;;0.00;0.00;;;19.40;77.70;18.80;100937.00;;;;5038834;28;20033;-83
2021/07/13 05:52:47;;;;;;;0.00;0.00;;;19.40;77.20;18.80;100942.00;;;;5003277;28;20507;-83
2021/07/13 05:55:13;;;;;;;0.00;0.00;;;19.30;78.20;18.70;100938.00;;;;5039417;28;20051;-83
2021/07/13 05:57:39;;;;;;;0.03;0.03;;;19.30;78.70;18.70;100932.00;;;;5004257;28;20040;-84
2021/07/13 06:00:11;;;;;;;0.00;0.00;;;19.30;76.70;18.70;100935.00;;;;5036724;28;20040;-84
2021/07/13 06:02:40;;;;;;;0.10;0.10;;;19.30;77.40;18.70;100940.00;;;;5021908;28;20059;-83
2021/07/13 06:05:07;;;;;;;0.00;0.00;;;19.30;78.80;18.70;100931.00;;;;5036729;28;20045;-82
2021/07/13 06:07:33;;;;;;;0.00;0.00;;;19.30;78.70;18.70;100934.00;;;;5006928;28;20044;-83
2021/07/13 06:09:58;;;;;;;0.00;0.00;;;19.30;78.90;18.70;100930.00;;;;5005511;28;20042;-83
2021/07/13 06:12:25;;;;;;;0.00;0.00;;;19.30;77.70;18.70;100928.00;;;;5036336;28;20415;-83
2021/07/13 06:14:50;;;;;;;0.00;0.00;;;19.30;78.20;18.80;100932.00;;;;5005300;28;20040;-83
2021/07/13 06:17:17;;;;;;;0.00;0.00;;;19.60;79.30;18.80;100936.00;;;;5026183;28;20295;-83
2021/07/13 06:19:42;;;;;;;0.00;0.00;;;19.40;79.50;18.90;100938.00;;;;5019603;28;20129;-83
2021/07/13 06:22:08;;;;;;;0.20;0.20;;;19.50;78.50;18.90;100937.00;;;;5019172;28;20045;-83
2021/07/13 06:24:35;;;;;;;0.00;0.00;;;;;19.00;100937.00;;;;5003941;28;20077;-83
2021/07/13 06:27:01;;;;;;;0.00;0.00;;;19.50;79.10;19.00;100948.00;;;;5020653;28;20053;-82
2021/07/13 06:29:27;;;;;;;0.00;0.00;;;19.60;79.50;19.00;100947.00;;;;5037740;28;20056;-83
2021/07/13 06:31:53;;;;;;;0.00;0.00;;;19.60;79.30;19.10;100947.00;;;;5024621;28;20047;-82
2021/07/13 06:34:19;;;;;;;0.00;0.00;;;19.60;79.40;19.10;100950.00;;;;5020942;28;20119;-83
2021/07/13 06:36:45;;;;;;;0.00;0.00;;;19.70;78.40;19.10;100956.00;;;;5021698;28;20292;-83
2021/07/13 06:39:11;;;;;;;0.00;0.00;;;19.60;79.10;19.10;100950.00;;;;5032849;28;20038;-83
2021/07/13 06:41:37;;;;;;;0.00;0.00;;;19.70;79.40;19.10;100954.00;;;;5015951;28;20096;-82
2021/07/13 06:44:04;;;;;;;0.00;0.00;;;19.70;78.90;19.10;100958.00;;;;5040883;28;20602;-83
2021/07/13 06:46:32;;;;;;;;;;;19.70;79.50;19.10;100960.00;;;;5035013;28;20116;-83
2021/07/13 06:49:01;;;;;;;0.00;0.00;;;;;19.10;100961.00;;;;5018841;28;20391;-82
2021/07/13 06:51:27;;;;;;;0.30;0.30;;;19.70;78.20;19.10;100968.00;;;;5025979;28;20067;-82
2021/07/13 06:53:53;;;;;;;0.65;0.25;;;19.70;78.00;19.10;100966.00;;;;5024762;28;20041;-83
2021/07/13 06:56:21;;;;;;;0.00;0.00;;;19.70;78.60;19.10;100968.00;;;;5023610;28;20041;-83
2021/07/13 06:58:47;;;;;;;0.00;0.00;;;;;19.10;100966.00;;;;5024354;28;20539;-84
2021/07/13 07:01:13;;;;;;;0.00;0.00;;;19.70;80.30;19.10;100967.00;;;;5008426;28;20041;-83
2021/07/13 07:03:40;;;;;;;0.00;0.00;;;;;19.20;100968.00;;;;5036882;28;20041;-83
2021/07/13 07:06:06;;;;;;;0.00;0.00;;;19.80;80.80;19.20;100963.00;;;;5022685;28;20044;-85
2021/07/13 07:08:32;;;;;;;0.00;0.00;;;19.80;79.10;19.20;100963.00;;;;5020618;28;20131;-84
2021/07/13 07:10:58;;;;;;;0.00;0.00;;;19.80;79.90;19.20;100968.00;;;;5040132;28;20122;-85
2021/07/13 07:13:24;;;;;;;0.00;0.00;;;19.90;79.70;19.30;100979.00;;;;5006709;28;20602;-84
2021/07/13 07:15:50;;;;;;;0.00;0.00;;;19.90;79.20;19.30;100970.00;;;;5006959;28;20068;-84
2021/07/13 07:18:16;;;;;;;0.57;0.20;;;19.90;80.30;19.30;100984.00;;;;5005513;28;20041;-85
2021/07/13 07:20:42;;;;;;;0.03;0.03;;;19.90;78.30;19.40;100976.00;;;;5021729;28;20038;-85
2021/07/13 07:23:08;;;;;;;0.10;0.10;;;20.00;79.80;19.40;100981.00;;;;5019299;28;20568;-85
2021/07/13 07:25:35;;;;;;;0.00;0.00;;;20.00;80.40;19.40;100978.00;;;;5028552;28;20056;-85
2021/07/13 07:28:02;;;;;;;0.03;0.03;;;20.00;80.90;19.50;100978.00;;;;5034262;28;20045;-85
2021/07/13 07:30:29;;;;;;;0.00;0.00;;;20.10;80.00;19.50;100984.00;;;;5005882;28;21302;-85
2021/07/13 07:33:01;;;;;;;0.00;0.00;;;20.10;81.40;19.60;100974.00;;;;4998375;28;20080;-85
2021/07/13 07:35:28;;;;;;;0.00;0.00;;;20.10;79.80;19.60;100973.00;;;;5033211;28;20033;-84
2021/07/13 07:37:54;;;;;;;;;;;;;19.60;100978.00;;;;5024670;28;20521;-86
2021/07/13 07:40:22;;;;;;;0.00;0.00;;;20.20;80.30;19.60;100982.00;;;;5026234;28;19928;-84
2021/07/13 07:42:51;;;;;;;0.10;0.10;;;20.20;80.40;19.60;100977.00;;;;5022251;28;20041;-84
2021/07/13 07:45:20;;;;;;;0.00;0.00;;;20.20;78.40;19.70;100971.00;;;;5007200;28;20063;-84
2021/07/13 07:47:47;;;;;;;1.55;0.13;;;20.20;79.40;19.70;100972.00;;;;5030434;28;20060;-84
2021/07/13 07:50:14;;;;;;;0.00;0.00;;;;;19.70;100964.00;;;;5002582;28;20049;-83
2021/07/13 07:52:41;;;;;;;0.00;0.00;;;20.20;78.70;19.70;100970.00;;;;5001782;28;20022;-84
2021/07/13 07:55:09;;;;;;;0.00;0.00;;;20.20;78.50;19.70;100975.00;;;;5003902;28;20600;-84
2021/07/13 07:57:36;;;;;;;0.00;0.00;;;20.30;79.50;19.70;100974.00;;;;4970813;28;20080;-84
2021/07/13 08:00:06;;;;;;;0.00;0.00;;;;;19.80;100968.00;;;;5014507;28;20106;-83
2021/07/13 08:02:39;;;;;;;0.00;0.00;;;20.30;80.70;19.80;100965.00;;;;5017229;28;20092;-83
2021/07/13 08:05:07;;;;;;;0.00;0.00;;;20.40;79.90;19.90;100968.00;;;;5016408;28;20072;-84
2021/07/13 08:07:34;;;;;;;0.00;0.00;;;;;20.00;100972.00;;;;4988432;28;20042;-83
2021/07/13 08:10:00;;;;;;;0.00;0.00;;;20.50;80.40;20.00;100978.00;;;;5000179;28;20056;-84
2021/07/13 08:12:27;;;;;;;0.10;0.10;;;;;20.00;100981.00;;;;5001896;28;20049;-83
2021/07/13 08:14:53;;;;;;;;;;;20.60;80.10;20.00;100981.00;;;;5021475;28;20050;-83
2021/07/13 08:17:19;;;;;;;0.00;0.00;;;20.60;79.20;20.10;100980.00;;;;4988416;28;19943;-83
2021/07/13 08:19:46;;;;;;;0.05;0.05;;;20.60;78.40;20.10;100987.00;;;;5006268;28;20053;-83
2021/07/13 08:22:13;;;;;;;0.57;0.57;;;20.50;77.70;20.00;100980.00;;;;4989954;28;20132;-83
2021/07/13 08:24:42;;;;;;;0.00;0.00;;;20.50;78.10;19.90;100982.00;;;;5021694;28;20526;-83
2021/07/13 08:27:09;;;;;;;0.15;0.15;;;20.50;77.60;19.80;100983.00;;;;5000324;28;20045;-84
2021/07/13 08:29:36;;;;;;;0.00;0.00;;;20.40;78.60;19.80;100991.00;;;;5005305;28;20037;-84
2021/07/13 08:32:03;;;;;;;0.00;0.00;;;20.40;78.40;19.80;100994.00;;;;4964920;28;20073;-84
2021/07/13 08:34:33;;;;;;;0.00;0.00;;;20.40;80.00;19.80;100987.00;;;;5003046;28;20048;-84
2021/07/13 08:36:59;;;;;;;0.00;0.00;;;20.40;79.50;19.80;100982.00;;;;5001185;28;20038;-84
2021/07/13 08:39:25;;;;;;;0.00;0.00;;;20.40;78.80;19.80;100967.00;;;;5019428;28;20046;-84
2021/07/13 08:41:52;;;;;;;0.00;0.00;;;20.40;78.60;19.80;100981.00;;;;5004071;28;20037;-84
2021/07/13 08:44:18;;;;;;;0.10;0.10;;;20.40;78.70;19.80;100961.00;;;;4989583;28;20053;-84
2021/07/13 08:46:45;;;;;;;0.00;0.00;;;20.40;79.40;19.80;100957.00;;;;5005942;28;20105;-83
2021/07/13 08:49:13;;;;;;;;;;;20.40;81.40;19.90;100949.00;;;;5005397;28;20065;-84
2021/07/13 08:51:41;;;;;;;0.03;0.03;;;20.40;78.90;19.90;100949.00;;;;5007748;28;19920;-84
2021/07/13 08:54:08;;;;;;;0.32;0.20;;;20.50;79.50;20.00;100954.00;;;;5025373;28;20045;-84
2021/07/13 08:56:36;;;;;;;0.10;0.10;;;20.50;78.40;20.10;100953.00;;;;5005592;28;20084;-83
2021/07/13 08:59:04;;;;;;;0.30;0.30;;;20.60;78.10;20.10;100963.00;;;;4990347;28;20111;-84
2021/07/13 09:01:31;;;;;;;0.00;0.00;;;;;20.00;100962.00;;;;4998034;28;20156;-83
2021/07/13 09:04:08;;;;;;;0.10;0.10;;;20.60;79.10;20.00;100959.00;;;;5013380;28;20041;-83
2021/07/13 09:07:01;;;;;;;0.25;0.20;;;20.50;77.10;19.90;100955.00;;;;5021986;28;20054;-84
2021/07/13 09:09:33;;;;;;;0.08;0.08;;;20.50;77.80;19.90;100964.00;;;;4980409;28;20041;-83
2021/07/13 09:12:17;;;;;;;0.00;0.00;;;20.50;78.20;20.00;100965.00;;;;5002197;28;20045;-84
2021/07/13 09:14:54;;;;;;;0.00;0.00;;;20.50;78.80;20.00;100963.00;;;;5006778;28;20137;-83
2021/07/13 09:17:43;;;;;;;0.32;0.32;;;20.50;79.30;19.90;100971.00;;;;4986959;28;20056;-84
2021/07/13 09:20:32;;;;;;;0.10;0.10;;;20.50;77.10;19.90;100951.00;;;;5013680;28;20164;-84
2021/07/13 09:23:04;;;;;;;0.32;0.32;;;20.50;78.30;19.90;100961.00;;;;5017373;28;20109;-83
2021/07/13 09:25:44;;;;;;;0.00;0.00;;;20.50;78.80;19.90;100951.00;;;;5013778;28;20038;-82
2021/07/13 09:28:25;;;;;;;0.10;0.00;;;20.50;77.80;19.90;100964.00;;;;4988327;28;20666;-83
2021/07/13 09:30:59;;;;;;;0.00;0.00;;;20.50;77.60;19.90;100962.00;;;;4987837;28;20049;-84
2021/07/13 09:33:34;;;;;;;0.03;0.03;;;20.50;78.20;19.90;100957.00;;;;5005429;28;20057;-83
2021/07/13 09:36:11;;;;;;;1.17;0.10;;;20.60;78.10;20.00;100961.00;;;;5021229;28;20069;-84
2021/07/13 09:38:47;;;;;;;0.00;0.00;;;20.60;80.30;20.00;100960.00;;;;5024993;28;20041;-84
2021/07/13 09:41:17;;;;;;;0.00;0.00;;;20.60;77.80;20.10;100965.00;;;;5018332;28;20060;-83
2021/07/13 09:43:59;;;;;;;0.28;0.28;;;;;20.10;100959.00;;;;5024900;28;20041;-84
2021/07/13 09:46:45;;;;;;;0.08;0.08;;;;;20.20;100960.00;;;;5018861;28;20052;-84
2021/07/13 09:49:39;;;;;;;0.00;0.00;;;20.80;78.50;20.30;100958.00;;;;5019169;28;20115;-85
2021/07/13 09:52:06;;;;;;;0.00;0.00;;;20.90;79.90;20.40;100961.00;;;;4997691;28;20055;-85
2021/07/13 09:54:38;;;;;;;0.00;0.00;;;;;20.60;100974.00;;;;5003652;28;20053;-85
2021/07/13 09:57:16;;;;;;;0.25;0.25;;;21.00;78.80;20.60;100966.00;;;;5009971;28;20515;-85
2021/07/13 09:59:48;;;;;;;0.00;0.00;;;21.10;78.80;20.60;100962.00;;;;5003060;28;20070;-84
2021/07/13 10:02:17;;;;;;;0.00;0.00;;;21.10;77.80;20.60;100973.00;;;;4985283;28;20108;-85
2021/07/13 10:04:46;;;;;;;0.10;0.10;;;21.10;78.20;20.60;100973.00;;;;4988648;28;20061;-85
2021/07/13 10:07:15;;;;;;;0.00;0.00;;;;;20.50;100981.00;;;;5005465;28;20075;-85
2021/07/13 10:09:50;;;;;;;0.00;0.00;;;21.10;78.20;20.50;100980.00;;;;5002714;28;20041;-85
2021/07/13 10:12:20;;;;;;;0.20;0.10;;;21.10;78.50;20.50;100984.00;;;;5020332;28;20109;-85
2021/07/13 10:14:49;;;;;;;2.10;0.10;;;21.10;78.50;20.50;100983.00;;;;5000910;28;20080;-84
2021/07/13 10:17:17;;;;;;;0.00;0.00;;;21.00;78.40;20.60;100988.00;;;;5023955;28;20052;-86
2021/07/13 10:19:53;;;;;;;0.13;0.10;;;;;20.60;100993.00;;;;4999923;28;20057;-84
2021/07/13 10:22:21;;;;;;;0.05;0.05;;;;;20.50;100990.00;;;;4996960;28;20052;-84
2021/07/13 10:24:51;;;;;;;0.00;0.00;;;21.00;78.10;20.50;101000.00;;;;5000263;28;20037;-84
2021/07/13 10:27:32;;;;;;;0.17;0.10;;;21.00;78.20;20.50;100989.00;;;;4987844;28;20049;-83
2021/07/13 10:30:01;;;;;;;0.00;0.00;;;21.00;80.00;20.50;100993.00;;;;5015327;28;20060;-84
2021/07/13 10:32:27;;;;;;;0.30;0.30;;;21.10;79.30;20.60;100994.00;;;;5008971;28;20037;-83
2021/07/13 10:35:12;;;;;;;0.00;0.00;;;21.10;78.60;20.60;100994.00;;;;5018935;28;20293;-84
2021/07/13 10:37:45;;;;;;;0.68;0.30;;;21.10;79.90;20.50;100989.00;;;;4981976;28;20398;-84
2021/07/13 10:40:16;;;;;;;0.28;0.28;;;21.00;78.70;20.50;100992.00;;;;5010374;28;20472;-84
2021/07/13 10:42:41;;;;;;;0.20;0.15;;;21.10;78.70;20.50;100994.00;;;;4969908;28;20050;-84
2021/07/13 10:45:14;;;;;;;0.03;0.03;;;;;20.50;100993.00;;;;4996004;28;20488;-84
2021/07/13 10:48:07;;;;;;;0.93;0.38;;;21.00;78.60;20.50;100988.00;;;;5004285;28;20057;-84
2021/07/13 10:50:57;;;;;;;0.00;0.00;;;21.00;78.40;20.50;100990.00;;;;5029198;28;20102;-84
2021/07/13 10:53:29;;;;;;;0.00;0.00;;;21.00;79.00;20.50;100991.00;;;;5032958;28;20123;-84
2021/07/13 10:56:07;;;;;;;0.00;0.00;;;21.20;78.90;20.50;100985.00;;;;5015479;28;20033;-84
2021/07/13 10:58:54;;;;;;;0.13;0.10;;;21.00;78.90;20.50;100984.00;;;;5015630;28;20254;-84
2021/07/13 11:01:26;;;;;;;0.00;0.00;;;21.00;80.10;20.50;100971.00;;;;5032579;28;20055;-84
2021/07/13 11:03:59;;;;;;;0.00;0.00;;;21.10;79.50;20.60;100972.00;;;;5017198;28;20755;-84
2021/07/13 11:06:44;;;;;;;0.25;0.25;;;21.10;78.60;20.60;100980.00;;;;4999854;28;20051;-85
2021/07/13 11:09:28;;;;;;;0.38;0.20;;;21.20;78.70;20.70;100982.00;;;;4998515;28;20106;-83